sensor_id;sensor_type;location;lat;lon;timestamp;pressure;altitude;pressure_sealevel;temperature;humidity
63708;BME280;67643;-34.198;22.084;2023-02-13T00:01:09;99975.89;;;23.19;48.00
63708;BME280;67643;-34.198;22.084;2023-02-13T00:03:37;99977.04;;;23.57;46.96
63708;BME280;67643;-34.198;22.084;2023-02-13T00:06:06;99970.60;;;23.44;47.52
63708;BME280;67643;-34.198;22.084;2023-02-13T00:08:35;99962.01;;;23.06;48.20
63708;BME280;67643;-34.198;22.084;2023-02-13T00:11:03;99963.25;;;23.48;47.61
63708;BME280;67643;-34.198;22.084;2023-02-13T00:13:33;99962.83;;;23.11;47.68
63708;BME280;67643;-34.198;22.084;2023-02-13T00:16:03;99955.36;;;22.71;48.28
63708;BME280;67643;-34.198;22.084;2023-02-13T00:18:35;99951.51;;;22.46;48.68
63708;BME280;67643;-34.198;22.084;2023-02-13T00:21:06;99950.51;;;22.58;48.94
63708;BME280;67643;-34.198;22.084;2023-02-13T00:23:36;99950.78;;;22.88;47.92
63708;BME280;67643;-34.198;22.084;2023-02-13T00:26:07;99958.07;;;23.31;47.78
63708;BME280;67643;-34.198;22.084;2023-02-13T00:28:36;99954.99;;;22.94;48.45
63708;BME280;67643;-34.198;22.084;2023-02-13T00:31:05;99956.99;;;22.87;47.69
63708;BME280;67643;-34.198;22.084;2023-02-13T00:33:34;99953.36;;;22.63;48.30
63708;BME280;67643;-34.198;22.084;2023-02-13T00:36:05;99950.65;;;23.24;47.37
63708;BME280;67643;-34.198;22.084;2023-02-13T00:38:35;99949.48;;;23.53;46.76
63708;BME280;67643;-34.198;22.084;2023-02-13T00:41:04;99951.97;;;23.11;47.28
63708;BME280;67643;-34.198;22.084;2023-02-13T00:43:33;99953.56;;;23.08;47.51
63708;BME280;67643;-34.198;22.084;2023-02-13T00:46:03;99948.06;;;23.37;46.87
63708;BME280;67643;-34.198;22.084;2023-02-13T00:48:33;99943.67;;;23.19;46.91
63708;BME280;67643;-34.198;22.084;2023-02-13T00:51:02;99937.79;;;23.10;47.59
63708;BME280;67643;-34.198;22.084;2023-02-13T00:53:31;99930.22;;;23.06;47.78
63708;BME280;67643;-34.198;22.084;2023-02-13T00:56:00;99928.75;;;23.17;47.66
63708;BME280;67643;-34.198;22.084;2023-02-13T00:58:28;99924.09;;;23.20;47.60
63708;BME280;67643;-34.198;22.084;2023-02-13T01:00:57;99922.36;;;23.13;48.18
63708;BME280;67643;-34.198;22.084;2023-02-13T01:03:26;99919.58;;;22.76;48.45
63708;BME280;67643;-34.198;22.084;2023-02-13T01:05:56;99918.35;;;23.43;47.74
63708;BME280;67643;-34.198;22.084;2023-02-13T01:08:25;99914.82;;;22.44;48.58
63708;BME280;67643;-34.198;22.084;2023-02-13T01:10:54;99906.35;;;22.59;48.75
63708;BME280;67643;-34.198;22.084;2023-02-13T01:13:23;99901.58;;;22.75;48.48
63708;BME280;67643;-34.198;22.084;2023-02-13T01:15:51;99904.62;;;23.65;47.42
63708;BME280;67643;-34.198;22.084;2023-02-13T01:18:20;99904.37;;;23.48;46.82
63708;BME280;67643;-34.198;22.084;2023-02-13T01:20:57;99900.20;;;24.18;46.46
63708;BME280;67643;-34.198;22.084;2023-02-13T01:23:30;99890.08;;;23.45;47.28
63708;BME280;67643;-34.198;22.084;2023-02-13T01:25:59;99891.13;;;23.09;47.53
63708;BME280;67643;-34.198;22.084;2023-02-13T01:28:28;99885.37;;;23.27;47.64
63708;BME280;67643;-34.198;22.084;2023-02-13T01:30:57;99885.01;;;23.04;47.60
63708;BME280;67643;-34.198;22.084;2023-02-13T01:33:27;99882.50;;;22.86;48.34
63708;BME280;67643;-34.198;22.084;2023-02-13T01:35:56;99878.34;;;23.17;47.88
63708;BME280;67643;-34.198;22.084;2023-02-13T01:38:24;99879.08;;;22.80;48.51
63708;BME280;67643;-34.198;22.084;2023-02-13T01:40:53;99878.43;;;23.09;48.08
63708;BME280;67643;-34.198;22.084;2023-02-13T01:43:22;99876.59;;;22.79;48.57
63708;BME280;67643;-34.198;22.084;2023-02-13T01:45:55;99876.74;;;23.10;48.04
63708;BME280;67643;-34.198;22.084;2023-02-13T01:48:26;99878.26;;;23.32;47.16
63708;BME280;67643;-34.198;22.084;2023-02-13T01:50:57;99877.75;;;23.40;47.44
63708;BME280;67643;-34.198;22.084;2023-02-13T01:53:31;99875.32;;;23.27;47.70
63708;BME280;67643;-34.198;22.084;2023-02-13T01:56:04;99871.89;;;23.09;48.33
63708;BME280;67643;-34.198;22.084;2023-02-13T01:58:37;99872.48;;;22.96;48.23
63708;BME280;67643;-34.198;22.084;2023-02-13T02:03:29;99876.93;;;22.99;48.94
63708;BME280;67643;-34.198;22.084;2023-02-13T02:05:59;99878.30;;;22.92;48.24
63708;BME280;67643;-34.198;22.084;2023-02-13T02:08:29;99875.83;;;23.25;47.72
63708;BME280;67643;-34.198;22.084;2023-02-13T02:11:04;99872.20;;;22.78;48.87
63708;BME280;67643;-34.198;22.084;2023-02-13T02:13:34;99871.95;;;22.59;48.32
63708;BME280;67643;-34.198;22.084;2023-02-13T02:16:02;99876.43;;;22.99;48.18
63708;BME280;67643;-34.198;22.084;2023-02-13T02:18:31;99876.65;;;22.80;48.50
63708;BME280;67643;-34.198;22.084;2023-02-13T02:21:26;99879.80;;;22.65;48.68
63708;BME280;67643;-34.198;22.084;2023-02-13T02:26:42;99874.88;;;22.74;48.90
63708;BME280;67643;-34.198;22.084;2023-02-13T02:29:39;99877.75;;;22.71;48.18
63708;BME280;67643;-34.198;22.084;2023-02-13T02:32:24;99876.97;;;23.28;47.72
63708;BME280;67643;-34.198;22.084;2023-02-13T02:35:01;99877.55;;;22.81;48.17
63708;BME280;67643;-34.198;22.084;2023-02-13T02:37:45;99879.49;;;22.96;48.32
63708;BME280;67643;-34.198;22.084;2023-02-13T02:40:24;99878.48;;;22.76;48.68
63708;BME280;67643;-34.198;22.084;2023-02-13T02:43:05;99878.86;;;22.62;49.03
63708;BME280;67643;-34.198;22.084;2023-02-13T02:45:39;99880.87;;;22.65;48.97
63708;BME280;67643;-34.198;22.084;2023-02-13T02:48:20;99879.52;;;22.86;49.01
63708;BME280;67643;-34.198;22.084;2023-02-13T02:50:53;99874.96;;;22.78;49.18
63708;BME280;67643;-34.198;22.084;2023-02-13T02:53:32;99877.46;;;22.90;48.98
63708;BME280;67643;-34.198;22.084;2023-02-13T02:56:10;99878.50;;;22.26;49.24
63708;BME280;67643;-34.198;22.084;2023-02-13T02:58:45;99881.36;;;22.72;49.31
63708;BME280;67643;-34.198;22.084;2023-02-13T03:01:19;99882.60;;;22.58;49.12
63708;BME280;67643;-34.198;22.084;2023-02-13T03:03:48;99881.41;;;23.25;48.24
63708;BME280;67643;-34.198;22.084;2023-02-13T03:06:21;99871.87;;;22.69;49.18
63708;BME280;67643;-34.198;22.084;2023-02-13T03:08:54;99869.94;;;22.52;49.43
63708;BME280;67643;-34.198;22.084;2023-02-13T03:11:25;99869.17;;;22.09;50.15
63708;BME280;67643;-34.198;22.084;2023-02-13T03:13:53;99867.52;;;21.33;51.19
63708;BME280;67643;-34.198;22.084;2023-02-13T03:16:24;99866.62;;;22.11;49.79
63708;BME280;67643;-34.198;22.084;2023-02-13T03:18:56;99870.40;;;23.87;47.31
63708;BME280;67643;-34.198;22.084;2023-02-13T03:21:33;99866.01;;;24.26;46.46
63708;BME280;67643;-34.198;22.084;2023-02-13T03:24:09;99866.92;;;22.66;48.69
63708;BME280;67643;-34.198;22.084;2023-02-13T03:26:46;99872.90;;;23.09;47.88
63708;BME280;67643;-34.198;22.084;2023-02-13T03:29:27;99873.98;;;22.86;48.25
63708;BME280;67643;-34.198;22.084;2023-02-13T03:32:05;99875.36;;;22.19;49.79
63708;BME280;67643;-34.198;22.084;2023-02-13T03:34:40;99877.95;;;22.47;49.20
63708;BME280;67643;-34.198;22.084;2023-02-13T03:37:14;99879.93;;;23.52;47.35
63708;BME280;67643;-34.198;22.084;2023-02-13T03:39:48;99881.94;;;23.05;47.89
63708;BME280;67643;-34.198;22.084;2023-02-13T03:42:28;99881.50;;;23.77;47.03
63708;BME280;67643;-34.198;22.084;2023-02-13T03:45:01;99879.20;;;23.50;46.87
63708;BME280;67643;-34.198;22.084;2023-02-13T03:47:30;99880.17;;;23.80;46.48
63708;BME280;67643;-34.198;22.084;2023-02-13T03:49:59;99876.21;;;24.49;45.70
63708;BME280;67643;-34.198;22.084;2023-02-13T03:52:32;99878.25;;;23.88;45.81
63708;BME280;67643;-34.198;22.084;2023-02-13T03:55:08;99882.61;;;23.88;45.92
63708;BME280;67643;-34.198;22.084;2023-02-13T03:57:40;99888.85;;;24.16;45.81
63708;BME280;67643;-34.198;22.084;2023-02-13T04:00:14;99887.04;;;24.23;45.62
63708;BME280;67643;-34.198;22.084;2023-02-13T06:06:54;99966.16;;;22.53;57.72
63708;BME280;67643;-34.198;22.084;2023-02-13T06:09:22;99967.41;;;23.93;53.19
63708;BME280;67643;-34.198;22.084;2023-02-13T06:11:50;99968.05;;;25.07;49.73
63708;BME280;67643;-34.198;22.084;2023-02-13T06:14:19;99963.96;;;25.61;47.67
63708;BME280;67643;-34.198;22.084;2023-02-13T06:16:47;99960.46;;;25.29;47.05
63708;BME280;67643;-34.198;22.084;2023-02-13T06:19:15;99967.91;;;26.27;45.26
63708;BME280;67643;-34.198;22.084;2023-02-13T06:21:43;99972.82;;;26.17;45.00
63708;BME280;67643;-34.198;22.084;2023-02-13T06:24:12;99975.54;;;26.40;44.17
63708;BME280;67643;-34.198;22.084;2023-02-13T06:26:40;99979.08;;;26.58;44.05
63708;BME280;67643;-34.198;22.084;2023-02-13T06:29:09;99979.32;;;26.39;44.45
63708;BME280;67643;-34.198;22.084;2023-02-13T06:31:37;99981.61;;;26.16;44.61
63708;BME280;67643;-34.198;22.084;2023-02-13T06:34:05;99982.56;;;26.56;43.44
63708;BME280;67643;-34.198;22.084;2023-02-13T06:36:34;99980.57;;;26.79;43.45
63708;BME280;67643;-34.198;22.084;2023-02-13T06:39:03;99984.38;;;26.34;44.12
63708;BME280;67643;-34.198;22.084;2023-02-13T06:41:31;99987.17;;;25.88;44.34
63708;BME280;67643;-34.198;22.084;2023-02-13T06:43:59;99985.09;;;25.73;44.48
63708;BME280;67643;-34.198;22.084;2023-02-13T06:46:28;99981.75;;;26.33;43.49
63708;BME280;67643;-34.198;22.084;2023-02-13T06:48:56;99982.98;;;26.06;44.17
63708;BME280;67643;-34.198;22.084;2023-02-13T06:51:25;99978.85;;;26.52;43.47
63708;BME280;67643;-34.198;22.084;2023-02-13T06:53:53;99980.69;;;26.01;44.20
63708;BME280;67643;-34.198;22.084;2023-02-13T06:56:21;99976.34;;;26.04;44.32
63708;BME280;67643;-34.198;22.084;2023-02-13T06:58:50;99980.51;;;26.76;43.01
63708;BME280;67643;-34.198;22.084;2023-02-13T07:01:18;99984.11;;;26.52;43.42
63708;BME280;67643;-34.198;22.084;2023-02-13T07:03:46;99982.21;;;26.20;43.95
63708;BME280;67643;-34.198;22.084;2023-02-13T07:06:17;99986.69;;;26.16;44.12
63708;BME280;67643;-34.198;22.084;2023-02-13T07:08:47;99985.26;;;26.01;43.50
63708;BME280;67643;-34.198;22.084;2023-02-13T07:11:18;99976.52;;;26.88;42.41
63708;BME280;67643;-34.198;22.084;2023-02-13T07:13:46;99971.72;;;26.38;43.57
63708;BME280;67643;-34.198;22.084;2023-02-13T07:16:15;99970.77;;;26.53;43.05
63708;BME280;67643;-34.198;22.084;2023-02-13T07:18:45;99969.06;;;26.25;43.85
63708;BME280;67643;-34.198;22.084;2023-02-13T07:21:14;99969.07;;;26.50;43.49
63708;BME280;67643;-34.198;22.084;2023-02-13T07:23:42;99969.00;;;26.07;43.96
63708;BME280;67643;-34.198;22.084;2023-02-13T07:26:10;99970.13;;;26.80;43.12
63708;BME280;67643;-34.198;22.084;2023-02-13T07:28:39;99968.84;;;26.26;43.49
63708;BME280;67643;-34.198;22.084;2023-02-13T07:31:07;99965.88;;;26.43;43.54
63708;BME280;67643;-34.198;22.084;2023-02-13T07:33:37;99969.26;;;26.17;43.78
63708;BME280;67643;-34.198;22.084;2023-02-13T07:36:06;99966.97;;;26.11;43.78
63708;BME280;67643;-34.198;22.084;2023-02-13T07:38:35;99966.74;;;26.36;42.92
63708;BME280;67643;-34.198;22.084;2023-02-13T07:41:04;99965.32;;;25.86;43.74
63708;BME280;67643;-34.198;22.084;2023-02-13T07:43:33;99966.82;;;26.23;43.42
63708;BME280;67643;-34.198;22.084;2023-02-13T07:46:02;99969.80;;;26.39;43.23
63708;BME280;67643;-34.198;22.084;2023-02-13T07:48:30;99968.54;;;26.13;43.67
63708;BME280;67643;-34.198;22.084;2023-02-13T07:51:01;99963.07;;;26.58;43.00
63708;BME280;67643;-34.198;22.084;2023-02-13T07:53:30;99963.83;;;26.58;43.05
63708;BME280;67643;-34.198;22.084;2023-02-13T07:55:59;99964.57;;;25.95;44.22
63708;BME280;67643;-34.198;22.084;2023-02-13T07:58:31;99960.55;;;25.93;44.45
63708;BME280;67643;-34.198;22.084;2023-02-13T08:01:06;99953.91;;;25.65;44.71
63708;BME280;67643;-34.198;22.084;2023-02-13T08:03:35;99949.67;;;25.93;44.59
63708;BME280;67643;-34.198;22.084;2023-02-13T08:06:04;99942.43;;;25.96;44.14
63708;BME280;67643;-34.198;22.084;2023-02-13T08:08:33;99941.42;;;25.70;44.68
63708;BME280;67643;-34.198;22.084;2023-02-13T08:11:05;99950.01;;;26.25;44.20
63708;BME280;67643;-34.198;22.084;2023-02-13T08:13:34;99943.58;;;25.39;44.99
63708;BME280;67643;-34.198;22.084;2023-02-13T08:16:03;99945.18;;;25.61;45.02
63708;BME280;67643;-34.198;22.084;2023-02-13T08:18:31;99940.09;;;26.23;44.09
63708;BME280;67643;-34.198;22.084;2023-02-13T08:21:01;99940.22;;;25.32;44.98
63708;BME280;67643;-34.198;22.084;2023-02-13T08:23:30;99938.84;;;25.54;45.21
63708;BME280;67643;-34.198;22.084;2023-02-13T08:25:59;99935.50;;;25.89;44.64
63708;BME280;67643;-34.198;22.084;2023-02-13T08:28:28;99932.36;;;25.77;44.50
63708;BME280;67643;-34.198;22.084;2023-02-13T08:30:57;99935.44;;;25.56;44.70
63708;BME280;67643;-34.198;22.084;2023-02-13T08:33:25;99933.95;;;25.60;44.68
63708;BME280;67643;-34.198;22.084;2023-02-13T08:35:54;99930.94;;;25.76;44.40
63708;BME280;67643;-34.198;22.084;2023-02-13T08:38:22;99931.85;;;25.34;44.94
63708;BME280;67643;-34.198;22.084;2023-02-13T08:40:51;99931.18;;;25.80;44.27
63708;BME280;67643;-34.198;22.084;2023-02-13T08:43:20;99929.69;;;26.20;44.09
63708;BME280;67643;-34.198;22.084;2023-02-13T08:45:48;99928.92;;;25.87;44.28
63708;BME280;67643;-34.198;22.084;2023-02-13T08:48:16;99923.18;;;25.95;44.17
63708;BME280;67643;-34.198;22.084;2023-02-13T08:50:45;99931.02;;;26.20;43.69
63708;BME280;67643;-34.198;22.084;2023-02-13T08:53:13;99927.13;;;25.95;44.07
63708;BME280;67643;-34.198;22.084;2023-02-13T08:55:42;99928.38;;;26.17;43.53
63708;BME280;67643;-34.198;22.084;2023-02-13T08:58:10;99927.70;;;26.13;44.02
63708;BME280;67643;-34.198;22.084;2023-02-13T09:00:39;99931.12;;;26.49;43.34
63708;BME280;67643;-34.198;22.084;2023-02-13T09:03:07;99918.67;;;25.70;44.66
63708;BME280;67643;-34.198;22.084;2023-02-13T09:05:36;99919.15;;;25.92;44.35
63708;BME280;67643;-34.198;22.084;2023-02-13T09:08:04;99922.55;;;25.90;44.41
63708;BME280;67643;-34.198;22.084;2023-02-13T09:10:33;99918.71;;;25.77;44.61
63708;BME280;67643;-34.198;22.084;2023-02-13T09:13:02;99910.75;;;25.61;44.84
63708;BME280;67643;-34.198;22.084;2023-02-13T09:15:31;99905.43;;;26.07;44.59
63708;BME280;67643;-34.198;22.084;2023-02-13T09:18:00;99906.03;;;25.84;44.17
63708;BME280;67643;-34.198;22.084;2023-02-13T09:20:29;99906.80;;;25.84;44.51
63708;BME280;67643;-34.198;22.084;2023-02-13T09:22:57;99907.07;;;25.74;44.79
63708;BME280;67643;-34.198;22.084;2023-02-13T09:25:25;99906.71;;;25.76;44.83
63708;BME280;67643;-34.198;22.084;2023-02-13T09:27:54;99908.24;;;25.50;45.90
63708;BME280;67643;-34.198;22.084;2023-02-13T09:30:23;99908.09;;;25.72;44.88
63708;BME280;67643;-34.198;22.084;2023-02-13T09:32:52;99905.13;;;25.47;45.69
63708;BME280;67643;-34.198;22.084;2023-02-13T09:35:22;99904.11;;;25.86;45.27
63708;BME280;67643;-34.198;22.084;2023-02-13T09:37:51;99902.52;;;25.98;45.12
63708;BME280;67643;-34.198;22.084;2023-02-13T09:40:24;99901.80;;;26.09;45.54
63708;BME280;67643;-34.198;22.084;2023-02-13T09:43:01;99902.44;;;25.94;45.48
63708;BME280;67643;-34.198;22.084;2023-02-13T09:45:32;99898.90;;;26.08;45.05
63708;BME280;67643;-34.198;22.084;2023-02-13T09:48:01;99901.52;;;25.68;45.61
63708;BME280;67643;-34.198;22.084;2023-02-13T09:50:32;99895.27;;;25.36;46.63
63708;BME280;67643;-34.198;22.084;2023-02-13T09:53:02;99893.71;;;25.73;46.50
63708;BME280;67643;-34.198;22.084;2023-02-13T09:55:36;99895.15;;;25.82;45.74
63708;BME280;67643;-34.198;22.084;2023-02-13T09:58:14;99900.63;;;26.45;45.31
63708;BME280;67643;-34.198;22.084;2023-02-13T10:00:49;99897.04;;;25.90;46.25
63708;BME280;67643;-34.198;22.084;2023-02-13T10:03:23;99891.41;;;25.86;45.69
63708;BME280;67643;-34.198;22.084;2023-02-13T10:06:03;99891.15;;;26.33;45.92
63708;BME280;67643;-34.198;22.084;2023-02-13T10:09:03;99882.59;;;26.42;45.90
63708;BME280;67643;-34.198;22.084;2023-02-13T10:12:02;99885.55;;;26.01;46.11
63708;BME280;67643;-34.198;22.084;2023-02-13T10:14:40;99880.56;;;25.66;47.30
63708;BME280;67643;-34.198;22.084;2023-02-13T10:17:16;99876.33;;;26.05;47.18
63708;BME280;67643;-34.198;22.084;2023-02-13T10:19:52;99876.04;;;26.02;47.40
63708;BME280;67643;-34.198;22.084;2023-02-13T10:22:24;99875.00;;;26.14;47.47
63708;BME280;67643;-34.198;22.084;2023-02-13T10:24:58;99879.53;;;26.02;47.26
63708;BME280;67643;-34.198;22.084;2023-02-13T10:27:34;99882.53;;;26.13;47.82
63708;BME280;67643;-34.198;22.084;2023-02-13T10:30:13;99888.51;;;25.93;48.24
63708;BME280;67643;-34.198;22.084;2023-02-13T10:32:48;99899.93;;;26.59;46.51
63708;BME280;67643;-34.198;22.084;2023-02-13T10:35:23;99908.32;;;26.23;47.16
63708;BME280;67643;-34.198;22.084;2023-02-13T10:37:57;99915.37;;;26.51;46.51
63708;BME280;67643;-34.198;22.084;2023-02-13T10:40:31;99914.85;;;26.17;46.65
63708;BME280;67643;-34.198;22.084;2023-02-13T10:43:08;99908.98;;;26.55;46.49
63708;BME280;67643;-34.198;22.084;2023-02-13T10:45:51;99906.98;;;27.21;45.08
63708;BME280;67643;-34.198;22.084;2023-02-13T10:48:39;99899.97;;;26.23;46.67
63708;BME280;67643;-34.198;22.084;2023-02-13T10:51:16;99893.14;;;26.39;46.39
63708;BME280;67643;-34.198;22.084;2023-02-13T10:53:55;99894.39;;;26.53;46.21
63708;BME280;67643;-34.198;22.084;2023-02-13T10:56:33;99899.65;;;27.18;45.25
63708;BME280;67643;-34.198;22.084;2023-02-13T10:59:22;99898.42;;;26.68;45.85
63708;BME280;67643;-34.198;22.084;2023-02-13T11:01:59;99896.88;;;26.40;47.33
63708;BME280;67643;-34.198;22.084;2023-02-13T11:04:29;99887.43;;;26.29;46.57
63708;BME280;67643;-34.198;22.084;2023-02-13T11:07:00;99879.20;;;26.55;46.63
63708;BME280;67643;-34.198;22.084;2023-02-13T11:09:32;99876.68;;;26.68;46.65
63708;BME280;67643;-34.198;22.084;2023-02-13T11:12:23;99876.92;;;26.68;46.39
63708;BME280;67643;-34.198;22.084;2023-02-13T11:14:56;99880.80;;;26.62;46.84
63708;BME280;67643;-34.198;22.084;2023-02-13T11:17:27;99872.36;;;26.97;46.63
63708;BME280;67643;-34.198;22.084;2023-02-13T11:19:58;99874.55;;;26.27;47.84
63708;BME280;67643;-34.198;22.084;2023-02-13T11:22:31;99867.95;;;26.56;47.42
63708;BME280;67643;-34.198;22.084;2023-02-13T11:25:05;99872.56;;;26.22;47.93
63708;BME280;67643;-34.198;22.084;2023-02-13T11:27:36;99863.02;;;26.84;46.86
63708;BME280;67643;-34.198;22.084;2023-02-13T11:30:10;99862.55;;;27.02;46.46
63708;BME280;67643;-34.198;22.084;2023-02-13T11:32:59;99862.05;;;26.31;47.47
63708;BME280;67643;-34.198;22.084;2023-02-13T11:35:29;99860.84;;;26.06;47.94
63708;BME280;67643;-34.198;22.084;2023-02-13T11:38:22;99859.83;;;25.79;48.46
63708;BME280;67643;-34.198;22.084;2023-02-13T11:41:02;99854.62;;;25.91;48.04
63708;BME280;67643;-34.198;22.084;2023-02-13T11:43:36;99849.20;;;25.86;48.84
63708;BME280;67643;-34.198;22.084;2023-02-13T11:46:09;99849.40;;;26.06;48.41
63708;BME280;67643;-34.198;22.084;2023-02-13T11:48:40;99851.95;;;26.03;48.63
63708;BME280;67643;-34.198;22.084;2023-02-13T11:51:10;99849.11;;;25.46;49.53
63708;BME280;67643;-34.198;22.084;2023-02-13T11:53:39;99851.16;;;25.97;48.26
63708;BME280;67643;-34.198;22.084;2023-02-13T11:56:10;99849.86;;;26.38;48.00
63708;BME280;67643;-34.198;22.084;2023-02-13T11:58:40;99849.33;;;26.37;48.09
63708;BME280;67643;-34.198;22.084;2023-02-13T12:01:23;99849.06;;;26.25;47.91
63708;BME280;67643;-34.198;22.084;2023-02-13T12:04:15;99851.30;;;26.45;47.89
63708;BME280;67643;-34.198;22.084;2023-02-13T12:07:00;99855.26;;;26.06;48.55
63708;BME280;67643;-34.198;22.084;2023-02-13T12:09:30;99844.90;;;26.25;48.89
63708;BME280;67643;-34.198;22.084;2023-02-13T12:12:00;99837.62;;;26.24;48.17
63708;BME280;67643;-34.198;22.084;2023-02-13T12:14:35;99837.10;;;26.00;48.59
63708;BME280;67643;-34.198;22.084;2023-02-13T12:17:11;99837.28;;;26.46;47.78
63708;BME280;67643;-34.198;22.084;2023-02-13T12:19:43;99842.77;;;26.47;47.72
63708;BME280;67643;-34.198;22.084;2023-02-13T12:22:21;99838.37;;;26.72;47.29
63708;BME280;67643;-34.198;22.084;2023-02-13T12:25:08;99837.44;;;26.71;47.29
63708;BME280;67643;-34.198;22.084;2023-02-13T12:27:48;99832.65;;;26.35;47.45
63708;BME280;67643;-34.198;22.084;2023-02-13T12:30:38;99833.99;;;26.74;46.95
63708;BME280;67643;-34.198;22.084;2023-02-13T12:33:24;99832.43;;;26.78;47.15
63708;BME280;67643;-34.198;22.084;2023-02-13T12:36:05;99828.69;;;26.74;47.32
63708;BME280;67643;-34.198;22.084;2023-02-13T12:38:48;99829.23;;;26.96;46.54
63708;BME280;67643;-34.198;22.084;2023-02-13T12:41:20;99829.91;;;26.32;47.11
63708;BME280;67643;-34.198;22.084;2023-02-13T12:44:10;99825.54;;;25.94;47.62
63708;BME280;67643;-34.198;22.084;2023-02-13T12:46:51;99821.09;;;26.57;47.00
63708;BME280;67643;-34.198;22.084;2023-02-13T12:49:35;99810.53;;;26.83;47.06
63708;BME280;67643;-34.198;22.084;2023-02-13T12:52:18;99808.12;;;26.63;47.43
63708;BME280;67643;-34.198;22.084;2023-02-13T12:55:03;99801.77;;;25.69;48.75
63708;BME280;67643;-34.198;22.084;2023-02-13T12:57:45;99801.03;;;26.33;47.74
63708;BME280;67643;-34.198;22.084;2023-02-13T13:00:30;99801.13;;;26.26;48.37
63708;BME280;67643;-34.198;22.084;2023-02-13T13:03:22;99812.01;;;26.98;46.85
63708;BME280;67643;-34.198;22.084;2023-02-13T13:06:08;99806.56;;;27.56;46.13
63708;BME280;67643;-34.198;22.084;2023-02-13T13:08:50;99802.05;;;26.67;47.39
63708;BME280;67643;-34.198;22.084;2023-02-13T13:11:32;99806.87;;;26.79;47.33
63708;BME280;67643;-34.198;22.084;2023-02-13T13:14:16;99810.35;;;27.16;46.87
63708;BME280;67643;-34.198;22.084;2023-02-13T13:16:55;99816.76;;;26.31;48.18
63708;BME280;67643;-34.198;22.084;2023-02-13T13:19:36;99809.90;;;26.94;47.24
63708;BME280;67643;-34.198;22.084;2023-02-13T13:22:11;99809.54;;;26.78;47.51
63708;BME280;67643;-34.198;22.084;2023-02-13T13:24:51;99812.60;;;27.45;46.85
63708;BME280;67643;-34.198;22.084;2023-02-13T13:27:25;99816.39;;;27.07;47.28
63708;BME280;67643;-34.198;22.084;2023-02-13T13:29:57;99824.55;;;25.93;49.20
63708;BME280;67643;-34.198;22.084;2023-02-13T13:32:27;99822.64;;;26.97;47.56
63708;BME280;67643;-34.198;22.084;2023-02-13T13:34:57;99824.82;;;27.29;46.62
63708;BME280;67643;-34.198;22.084;2023-02-13T13:37:31;99823.03;;;27.08;47.35
63708;BME280;67643;-34.198;22.084;2023-02-13T13:40:14;99825.41;;;27.51;46.73
63708;BME280;67643;-34.198;22.084;2023-02-13T13:42:49;99823.72;;;27.03;47.47
63708;BME280;67643;-34.198;22.084;2023-02-13T13:45:29;99823.91;;;27.10;47.37
63708;BME280;67643;-34.198;22.084;2023-02-13T13:49:28;99822.79;;;27.19;46.71
63708;BME280;67643;-34.198;22.084;2023-02-13T13:53:05;99823.89;;;26.33;48.53
63708;BME280;67643;-34.198;22.084;2023-02-13T13:56:07;99824.06;;;25.40;49.33
63708;BME280;67643;-34.198;22.084;2023-02-13T13:58:40;99820.17;;;26.80;47.14
63708;BME280;67643;-34.198;22.084;2023-02-13T14:01:25;99824.66;;;26.29;47.86
63708;BME280;67643;-34.198;22.084;2023-02-13T14:03:55;99817.30;;;26.56;46.82
63708;BME280;67643;-34.198;22.084;2023-02-13T14:06:26;99813.77;;;26.65;46.73
63708;BME280;67643;-34.198;22.084;2023-02-13T14:09:00;99815.60;;;26.72;46.50
63708;BME280;67643;-34.198;22.084;2023-02-13T14:11:40;99821.87;;;27.03;46.30
63708;BME280;67643;-34.198;22.084;2023-02-13T14:14:44;99820.05;;;27.22;45.46
63708;BME280;67643;-34.198;22.084;2023-02-13T14:17:14;99831.06;;;27.47;45.38
63708;BME280;67643;-34.198;22.084;2023-02-13T14:19:48;99831.20;;;27.61;45.10
63708;BME280;67643;-34.198;22.084;2023-02-13T14:22:36;99827.65;;;27.73;44.58
63708;BME280;67643;-34.198;22.084;2023-02-13T14:25:19;99829.15;;;27.22;45.96
63708;BME280;67643;-34.198;22.084;2023-02-13T14:27:57;99823.26;;;26.61;47.15
63708;BME280;67643;-34.198;22.084;2023-02-13T14:30:29;99824.58;;;26.70;47.20
63708;BME280;67643;-34.198;22.084;2023-02-13T14:33:01;99824.94;;;27.38;46.19
63708;BME280;67643;-34.198;22.084;2023-02-13T14:35:32;99813.34;;;27.01;47.05
63708;BME280;67643;-34.198;22.084;2023-02-13T14:38:03;99814.80;;;27.03;46.69
63708;BME280;67643;-34.198;22.084;2023-02-13T14:40:46;99821.01;;;27.23;45.93
63708;BME280;67643;-34.198;22.084;2023-02-13T14:43:27;99819.16;;;27.10;46.05
63708;BME280;67643;-34.198;22.084;2023-02-13T14:46:01;99820.71;;;27.19;45.87
63708;BME280;67643;-34.198;22.084;2023-02-13T14:48:38;99815.82;;;27.22;45.86
63708;BME280;67643;-34.198;22.084;2023-02-13T14:51:19;99818.12;;;27.04;45.75
63708;BME280;67643;-34.198;22.084;2023-02-13T14:53:52;99813.08;;;26.67;46.92
63708;BME280;67643;-34.198;22.084;2023-02-13T14:56:22;99815.34;;;26.87;46.25
63708;BME280;67643;-34.198;22.084;2023-02-13T14:58:54;99810.04;;;27.08;46.31
63708;BME280;67643;-34.198;22.084;2023-02-13T15:01:30;99800.44;;;26.79;47.17
63708;BME280;67643;-34.198;22.084;2023-02-13T15:04:06;99799.58;;;27.04;46.76
63708;BME280;67643;-34.198;22.084;2023-02-13T15:06:40;99796.29;;;27.45;46.09
63708;BME280;67643;-34.198;22.084;2023-02-13T15:09:23;99802.99;;;27.07;46.49
63708;BME280;67643;-34.198;22.084;2023-02-13T15:11:54;99803.32;;;27.32;45.61
63708;BME280;67643;-34.198;22.084;2023-02-13T15:14:29;99799.96;;;26.81;46.44
63708;BME280;67643;-34.198;22.084;2023-02-13T15:17:00;99798.09;;;26.67;46.60
63708;BME280;67643;-34.198;22.084;2023-02-13T15:19:31;99798.03;;;27.06;45.94
63708;BME280;67643;-34.198;22.084;2023-02-13T15:22:03;99797.08;;;27.25;45.44
63708;BME280;67643;-34.198;22.084;2023-02-13T15:24:42;99801.02;;;26.72;46.42